createdAt,value
2023-02-21T00:32:37.672Z,1003.64
2023-02-21T00:33:37.623Z,1003.62
2023-02-21T00:34:37.737Z,1003.61
2023-02-21T00:35:37.534Z,1003.61
2023-02-21T00:36:37.509Z,1003.57
2023-02-21T00:37:37.509Z,1003.56
2023-02-21T00:38:43.896Z,1003.54
2023-02-21T04:25:14.106Z,1002.79
2023-02-21T04:26:14.091Z,1002.82
2023-02-21T04:33:14.020Z,1002.71
2023-02-21T04:36:14.028Z,1002.77
2023-02-21T05:08:13.660Z,1002.84
2023-02-21T05:38:13.571Z,1002.79
2023-02-21T06:32:12.772Z,1002.82
2023-02-21T07:06:12.616Z,1002.89
2023-02-21T07:07:12.384Z,1002.92
2023-02-21T07:08:12.385Z,1002.88
2023-02-21T07:09:12.373Z,1002.91
2023-02-21T07:10:12.374Z,1002.93
2023-02-21T07:11:12.570Z,1002.93
2023-02-21T07:12:12.345Z,1002.95
2023-02-21T07:13:12.323Z,1002.90
2023-02-21T07:14:12.325Z,1002.86
2023-02-21T07:15:12.310Z,1002.81
2023-02-21T07:16:12.406Z,1002.83
2023-02-21T07:17:12.309Z,1002.86
2023-02-21T07:18:12.279Z,1002.77
2023-02-21T07:19:12.260Z,1002.83
2023-02-21T07:20:12.257Z,1002.81
2023-02-21T07:21:12.390Z,1002.87
2023-02-21T07:22:12.250Z,1002.85
2023-02-21T07:23:12.218Z,1002.89
2023-02-21T07:24:12.217Z,1002.88
2023-02-21T07:25:12.197Z,1002.89
2023-02-21T07:26:12.196Z,1002.92
2023-02-21T07:27:12.175Z,1002.93
2023-02-21T07:28:12.170Z,1002.94
2023-02-21T07:29:12.225Z,1002.95
2023-02-21T07:30:12.175Z,1002.93
2023-02-21T07:31:12.487Z,1002.92
2023-02-21T07:32:12.182Z,1002.95
2023-02-21T07:33:12.170Z,1002.90
2023-02-21T07:34:12.112Z,1002.88
2023-02-21T07:35:12.296Z,1002.87
2023-02-21T07:36:12.096Z,1002.87
2023-02-21T07:37:12.275Z,1002.87
2023-02-21T07:38:12.178Z,1002.88
2023-02-21T07:39:12.050Z,1002.92
2023-02-21T07:40:12.052Z,1002.86
2023-02-21T07:41:18.049Z,1002.87
2023-02-21T07:42:13.406Z,1002.89
2023-02-21T07:43:12.013Z,1002.90
2023-02-21T07:44:12.013Z,1002.89
2023-02-21T07:45:11.988Z,1002.86
2023-02-21T07:46:12.104Z,1002.92
2023-02-21T07:47:11.973Z,1002.90
2023-02-21T07:48:11.962Z,1002.89
2023-02-21T07:49:17.988Z,1002.86
2023-02-21T07:50:17.973Z,1002.90
2023-02-21T07:51:11.954Z,1002.87
2023-02-21T07:52:11.932Z,1002.90
2023-02-21T07:53:11.917Z,1002.89
2023-02-21T07:54:11.919Z,1002.89
2023-02-21T07:55:11.889Z,1002.87
2023-02-21T07:56:11.888Z,1002.85
2023-02-21T07:57:11.872Z,1002.86
2023-02-21T07:58:11.858Z,1002.87
2023-02-21T07:59:11.854Z,1002.85
2023-02-21T08:00:11.842Z,1002.84
2023-02-21T08:01:11.849Z,1002.83
2023-02-21T08:02:11.854Z,1002.84
2023-02-21T08:03:11.816Z,1002.84
2023-02-21T08:04:11.805Z,1002.82
2023-02-21T08:05:11.834Z,1002.86
2023-02-21T08:06:11.784Z,1002.83
2023-02-21T08:07:11.773Z,1002.85
2023-02-21T08:08:11.755Z,1002.87
2023-02-21T08:09:11.744Z,1002.85
2023-02-21T08:10:11.736Z,1002.84
2023-02-21T08:11:11.772Z,1002.82
2023-02-21T08:12:11.714Z,1002.87
2023-02-21T08:13:11.704Z,1002.85
2023-02-21T08:14:11.693Z,1002.90
2023-02-21T08:15:11.679Z,1002.86
2023-02-21T08:16:11.708Z,1002.84
2023-02-21T08:17:11.650Z,1002.86
2023-02-21T08:18:11.658Z,1002.84
2023-02-21T08:19:11.654Z,1002.82
2023-02-21T08:20:11.624Z,1002.82
2023-02-21T08:21:11.638Z,1002.78
2023-02-21T08:22:11.607Z,1002.80
2023-02-21T08:23:11.585Z,1002.85
2023-02-21T08:24:11.601Z,1002.85
2023-02-21T08:25:11.570Z,1002.85
2023-02-21T08:26:11.574Z,1002.82
2023-02-21T08:27:11.745Z,1002.82
2023-02-21T08:28:11.539Z,1002.79
2023-02-21T08:29:13.524Z,1002.81
2023-02-21T08:30:11.537Z,1002.77
2023-02-21T08:31:11.558Z,1002.80
2023-02-21T08:32:11.507Z,1002.83
2023-02-21T08:33:11.488Z,1002.84
2023-02-21T08:34:11.484Z,1002.83
2023-02-21T08:35:11.457Z,1002.79
2023-02-21T08:36:11.463Z,1002.79
2023-02-21T08:37:11.468Z,1002.82
2023-02-21T08:38:11.434Z,1002.79
2023-02-21T08:39:11.420Z,1002.75
2023-02-21T08:40:11.413Z,1002.75
2023-02-21T08:41:11.400Z,1002.74
2023-02-21T08:42:11.395Z,1002.73
2023-02-21T08:43:11.379Z,1002.73
2023-02-21T08:44:11.380Z,1002.67
2023-02-21T08:45:11.357Z,1002.69
2023-02-21T08:46:11.363Z,1002.69
2023-02-21T08:47:17.339Z,1002.67
2023-02-21T08:48:11.326Z,1002.59
2023-02-21T08:49:11.355Z,1002.62
2023-02-21T08:50:11.312Z,1002.62
2023-02-21T08:51:11.293Z,1002.55
2023-02-21T08:52:11.297Z,1002.60
2023-02-21T08:53:12.097Z,1002.54
2023-02-21T08:54:11.281Z,1002.55
2023-02-21T08:55:11.253Z,1002.53
2023-02-21T08:56:11.252Z,1002.53
2023-02-21T08:57:11.339Z,1002.55
2023-02-21T08:58:11.229Z,1002.50
2023-02-21T08:59:11.230Z,1002.53
2023-02-21T09:00:11.211Z,1002.53
2023-02-21T09:01:11.251Z,1002.52
2023-02-21T09:02:11.268Z,1002.49
2023-02-21T09:03:11.163Z,1002.47
2023-02-21T09:04:11.167Z,1002.46
2023-02-21T09:05:11.248Z,1002.42
2023-02-21T09:06:11.165Z,1002.43
2023-02-21T09:07:11.142Z,1002.41
2023-02-21T09:08:11.123Z,1002.32
2023-02-21T09:09:11.130Z,1002.34
2023-02-21T09:10:11.106Z,1002.39
2023-02-21T09:11:11.084Z,1002.37
2023-02-21T09:12:11.114Z,1002.35
2023-02-21T09:13:45.778Z,1002.35
2023-02-21T09:14:45.753Z,1002.40
2023-02-21T09:15:45.736Z,1002.34
2023-02-21T09:16:47.721Z,1002.30
2023-02-21T09:17:45.716Z,1002.29
2023-02-21T09:18:45.717Z,1002.32
2023-02-21T09:19:45.694Z,1002.32
2023-02-21T09:20:45.690Z,1002.28
2023-02-21T09:21:45.673Z,1002.26
2023-02-21T09:22:45.693Z,1002.27
2023-02-21T09:23:45.658Z,1002.28
2023-02-21T09:24:45.676Z,1002.21
2023-02-21T09:25:45.636Z,1002.29
2023-02-21T09:26:45.628Z,1002.26
2023-02-21T09:27:45.615Z,1002.26
2023-02-21T09:28:45.606Z,1002.32
2023-02-21T09:29:46.765Z,1002.19
2023-02-21T09:30:45.617Z,1002.18
2023-02-21T09:31:45.625Z,1002.16
2023-02-21T09:32:45.656Z,1002.16
2023-02-21T09:33:45.555Z,1002.14
2023-02-21T09:34:45.548Z,1002.08
2023-02-21T09:35:45.530Z,1002.07
2023-02-21T09:36:45.538Z,1002.06
2023-02-21T09:37:45.723Z,1002.05
2023-02-21T09:38:45.503Z,1002.02
2023-02-21T09:39:45.488Z,1002.03
2023-02-21T09:40:45.510Z,1001.98
2023-02-21T09:41:45.476Z,1002.03
2023-02-21T09:42:45.468Z,1001.98
2023-02-21T09:43:45.455Z,1001.98
2023-02-21T09:44:45.448Z,1001.95
2023-02-21T09:45:51.473Z,1001.91
2023-02-21T09:46:45.427Z,1001.94
2023-02-21T09:47:45.401Z,1001.86
2023-02-21T09:48:45.405Z,1001.86
2023-02-21T09:49:45.389Z,1001.87
2023-02-21T09:50:45.382Z,1001.88
2023-02-21T09:51:45.359Z,1001.84
2023-02-21T09:52:45.369Z,1001.83
2023-02-21T09:53:45.352Z,1001.79
2023-02-21T09:54:45.330Z,1001.81
2023-02-21T09:55:51.566Z,1001.75
2023-02-21T09:56:45.314Z,1001.81
2023-02-21T09:57:45.309Z,1001.78
2023-02-21T09:58:45.282Z,1001.75
2023-02-21T09:59:45.279Z,1001.74
2023-02-21T10:00:46.897Z,1001.73
2023-02-21T10:01:45.259Z,1001.74
2023-02-21T10:02:45.246Z,1001.77
2023-02-21T10:03:45.245Z,1001.73
2023-02-21T10:04:45.263Z,1001.75
2023-02-21T10:05:51.227Z,1001.79
2023-02-21T10:06:45.197Z,1001.72
2023-02-21T10:07:45.198Z,1001.70
2023-02-21T10:08:45.181Z,1001.63
2023-02-21T10:09:45.179Z,1001.60
2023-02-21T10:10:45.160Z,1001.64
2023-02-21T10:11:45.180Z,1001.63
2023-02-21T10:12:45.136Z,1001.63
2023-02-21T10:13:45.129Z,1001.58
2023-02-21T10:14:45.127Z,1001.55
2023-02-21T10:15:51.120Z,1001.56
2023-02-21T10:16:45.128Z,1001.57
2023-02-21T10:17:45.098Z,1001.56
2023-02-21T10:18:45.074Z,1001.62
2023-02-21T10:19:45.269Z,1001.57
2023-02-21T10:20:45.056Z,1001.61
2023-02-21T10:21:45.081Z,1001.60
2023-02-21T10:22:45.049Z,1001.60
2023-02-21T10:23:45.031Z,1001.59
2023-02-21T10:24:45.015Z,1001.56
2023-02-21T10:25:45.005Z,1001.58
2023-02-21T10:26:44.999Z,1001.61
2023-02-21T10:27:45.212Z,1001.57
2023-02-21T10:28:44.969Z,1001.61
2023-02-21T10:29:45.164Z,1001.58
2023-02-21T10:30:45.040Z,1001.56
2023-02-21T10:31:45.142Z,1001.56
2023-02-21T10:32:44.932Z,1001.58
2023-02-21T10:33:44.936Z,1001.60
2023-02-21T10:34:47.264Z,1001.57
2023-02-21T10:35:44.905Z,1001.55
2023-02-21T10:36:44.885Z,1001.57
2023-02-21T10:37:44.896Z,1001.53
2023-02-21T10:38:44.866Z,1001.55
2023-02-21T10:39:44.873Z,1001.54
2023-02-21T10:40:44.843Z,1001.52
2023-02-21T10:41:50.853Z,1001.51
2023-02-21T10:42:44.822Z,1001.51
2023-02-21T10:43:45.064Z,1001.51
2023-02-21T10:44:45.005Z,1001.49
2023-02-21T10:45:46.823Z,1001.51
2023-02-21T10:46:44.977Z,1001.50
2023-02-21T10:47:44.773Z,1001.51
2023-02-21T10:48:50.768Z,1001.50
2023-02-21T10:49:44.770Z,1001.48
2023-02-21T10:50:44.753Z,1001.46
2023-02-21T10:51:44.735Z,1001.45
2023-02-21T10:52:44.741Z,1001.44
2023-02-21T10:53:50.722Z,1001.46
2023-02-21T10:54:44.702Z,1001.49
2023-02-21T10:55:44.694Z,1001.45
2023-02-21T10:56:50.677Z,1001.48
2023-02-21T10:57:44.688Z,1001.46
2023-02-21T10:58:44.663Z,1001.40
2023-02-21T10:59:44.686Z,1001.39
2023-02-21T11:00:44.647Z,1001.33
2023-02-21T11:01:44.682Z,1001.31
2023-02-21T11:02:44.715Z,1001.28
2023-02-21T11:03:44.611Z,1001.31
2023-02-21T11:04:44.589Z,1001.26
2023-02-21T11:05:44.593Z,1001.23
2023-02-21T11:06:44.576Z,1001.22
2023-02-21T11:07:44.772Z,1001.14
2023-02-21T11:08:44.589Z,1001.11
2023-02-21T11:09:44.553Z,1001.05
2023-02-21T11:10:44.534Z,1001.08
2023-02-21T11:11:44.537Z,1001.06
2023-02-21T11:12:50.518Z,1001.06
2023-02-21T11:13:44.510Z,1000.99
2023-02-21T11:14:44.503Z,1000.99
2023-02-21T11:15:44.806Z,1001.01
2023-02-21T11:16:44.479Z,1001.03
2023-02-21T11:17:50.478Z,1001.00
2023-02-21T11:18:44.654Z,1000.94
2023-02-21T11:19:50.461Z,1000.95
2023-02-21T11:20:44.430Z,1000.97
2023-02-21T11:21:44.422Z,1000.96
2023-02-21T11:22:44.407Z,1000.87
2023-02-21T11:24:23.106Z,1000.91
2023-02-21T11:25:29.305Z,1000.90
2023-02-21T11:26:23.069Z,1000.89
2023-02-21T11:27:23.074Z,1000.90
2023-02-21T11:28:23.057Z,1000.84
2023-02-21T11:29:23.070Z,1000.86
2023-02-21T11:30:23.120Z,1000.82
2023-02-21T11:31:23.118Z,1000.81
2023-02-21T11:32:23.014Z,1000.82
2023-02-21T11:33:23.209Z,1000.78
2023-02-21T11:34:22.994Z,1000.75
2023-02-21T11:35:22.994Z,1000.74
2023-02-21T11:36:22.978Z,1000.75
2023-02-21T11:37:22.968Z,1000.72
2023-02-21T11:38:22.946Z,1000.68
2023-02-21T11:39:22.951Z,1000.67
2023-02-21T11:40:29.137Z,1000.67
2023-02-21T11:41:23.132Z,1000.63
2023-02-21T11:42:24.155Z,1000.65
2023-02-21T11:43:22.930Z,1000.61
2023-02-21T11:44:23.102Z,1000.61
2023-02-21T11:45:22.889Z,1000.61
2023-02-21T11:46:22.917Z,1000.63
2023-02-21T11:47:28.905Z,1000.59
2023-02-21T11:48:28.862Z,1000.51
2023-02-21T11:49:28.854Z,1000.50
2023-02-21T11:50:29.033Z,1000.50
2023-02-21T11:51:22.833Z,1000.46
2023-02-21T11:52:23.015Z,1000.43
2023-02-21T11:53:28.814Z,1000.45
2023-02-21T11:54:22.781Z,1000.40
2023-02-21T11:55:24.143Z,1000.38
2023-02-21T11:56:25.031Z,1000.39
2023-02-21T11:57:22.769Z,1000.36
2023-02-21T11:58:22.747Z,1000.32
2023-02-21T11:59:22.723Z,1000.29
2023-02-21T12:00:22.932Z,1000.29
2023-02-21T12:01:22.705Z,1000.26
2023-02-21T12:02:22.744Z,1000.22
2023-02-21T12:03:22.704Z,1000.21
2023-02-21T12:04:22.685Z,1000.17
2023-02-21T12:06:33.533Z,1000.14
2023-02-21T12:07:33.502Z,1000.16
2023-02-21T12:08:33.495Z,1000.12
2023-02-21T12:09:33.487Z,1000.16
2023-02-21T12:10:33.483Z,1000.13
2023-02-21T12:11:39.476Z,1000.10
2023-02-21T12:12:39.665Z,1000.07
2023-02-21T12:13:33.443Z,1000.04
2023-02-21T12:14:33.636Z,1000.03
2023-02-21T12:15:33.747Z,1000.03
2023-02-21T12:16:33.417Z,999.97
2023-02-21T12:17:35.462Z,1000.03
2023-02-21T12:18:33.420Z,999.97
2023-02-21T12:19:33.400Z,999.92
2023-02-21T12:20:33.568Z,999.93
2023-02-21T12:21:33.366Z,999.89
2023-02-21T12:22:33.352Z,999.88
2023-02-21T12:23:33.343Z,999.86
2023-02-21T12:24:33.534Z,999.88
2023-02-21T12:25:33.329Z,999.92
2023-02-21T12:26:33.317Z,999.92
2023-02-21T12:27:33.305Z,999.92
2023-02-21T12:28:33.497Z,999.88
2023-02-21T12:29:33.291Z,999.87
2023-02-21T12:30:33.395Z,999.85
2023-02-21T12:31:35.500Z,999.86
2023-02-21T12:32:33.260Z,999.86
2023-02-21T12:33:33.247Z,999.85
2023-02-21T12:34:33.273Z,999.80
2023-02-21T12:35:33.688Z,999.81
2023-02-21T12:36:33.225Z,999.78
2023-02-21T12:37:33.222Z,999.74
2023-02-21T12:38:39.636Z,999.75
2023-02-21T12:39:39.198Z,999.75
2023-02-21T12:40:33.183Z,999.72
2023-02-21T12:41:33.169Z,999.66
2023-02-21T12:42:33.370Z,999.69
2023-02-21T12:43:33.346Z,999.68
2023-02-21T12:44:33.152Z,999.70
2023-02-21T12:45:33.129Z,999.66
2023-02-21T12:46:33.169Z,999.58
2023-02-21T12:47:33.520Z,999.55
2023-02-21T12:48:39.121Z,999.51
2023-02-21T12:49:33.103Z,999.40
2023-02-21T12:50:33.559Z,999.45
2023-02-21T12:52:08.028Z,999.39
2023-02-21T12:53:13.821Z,999.39
2023-02-21T12:54:13.803Z,999.39
2023-02-21T12:55:07.794Z,999.41
2023-02-21T12:56:08.382Z,999.36
2023-02-21T12:57:07.780Z,999.35
2023-02-21T12:58:07.957Z,999.36
2023-02-21T12:59:07.761Z,999.38
2023-02-21T13:00:07.938Z,999.34
2023-02-21T13:01:07.751Z,999.39
2023-02-21T13:02:07.975Z,999.36
2023-02-21T13:03:07.802Z,999.30
2023-02-21T13:04:07.700Z,999.36
2023-02-21T13:05:07.696Z,999.37
2023-02-21T13:06:07.906Z,999.32
2023-02-21T13:07:07.675Z,999.30
2023-02-21T13:08:07.657Z,999.30
2023-02-21T13:09:07.651Z,999.28
2023-02-21T13:10:07.639Z,999.27
2023-02-21T13:11:07.632Z,999.25
2023-02-21T13:12:42.369Z,999.10
2023-02-21T13:13:42.360Z,999.12
2023-02-21T13:14:42.343Z,999.04
2023-02-21T13:15:42.334Z,999.06
2023-02-21T13:16:42.523Z,999.02
2023-02-21T13:18:13.262Z,999.00
2023-02-21T13:19:13.446Z,999.00
2023-02-21T13:20:15.095Z,999.00
2023-02-21T13:21:13.495Z,998.99
2023-02-21T13:22:13.015Z,998.97
2023-02-21T13:23:12.989Z,998.96
2023-02-21T13:24:13.010Z,999.02
2023-02-21T13:25:12.972Z,999.02
2023-02-21T13:26:55.758Z,999.04
2023-02-21T13:27:55.921Z,998.97
2023-02-21T13:29:34.473Z,998.98
2023-02-21T13:30:34.543Z,998.97
2023-02-21T13:31:40.514Z,999.01
2023-02-21T13:32:34.388Z,998.98
2023-02-21T13:33:34.357Z,999.03
2023-02-21T13:34:34.359Z,999.03
2023-02-21T13:35:34.340Z,998.99
2023-02-21T13:36:34.357Z,999.03
2023-02-21T13:37:40.359Z,999.03
2023-02-21T13:38:34.314Z,999.02
2023-02-21T13:39:40.307Z,998.99
2023-02-21T13:40:34.300Z,999.00
2023-02-21T13:41:34.284Z,998.98
2023-02-21T13:42:34.293Z,998.94
2023-02-21T13:43:34.259Z,998.95
2023-02-21T13:44:34.270Z,998.88
2023-02-21T13:45:34.463Z,998.86
2023-02-21T13:46:40.314Z,998.80
2023-02-21T13:47:36.278Z,998.76
2023-02-21T13:48:34.222Z,998.84
2023-02-21T13:49:34.219Z,998.82
2023-02-21T13:50:36.885Z,998.78
2023-02-21T13:51:34.193Z,998.74
2023-02-21T13:52:34.199Z,998.72
2023-02-21T13:53:34.205Z,998.68
2023-02-21T13:54:40.161Z,998.69
2023-02-21T13:55:34.150Z,998.72
2023-02-21T13:56:34.135Z,998.66
2023-02-21T13:57:34.134Z,998.66
2023-02-21T13:58:40.122Z,998.62
2023-02-21T13:59:34.120Z,998.66
2023-02-21T14:00:34.171Z,998.65
2023-02-21T14:01:34.303Z,998.64
2023-02-21T14:02:34.288Z,998.60
2023-02-21T14:03:40.097Z,998.54
2023-02-21T14:04:34.073Z,998.51
2023-02-21T14:05:34.266Z,998.49
2023-02-21T14:06:40.255Z,998.51
2023-02-21T14:07:34.039Z,998.48
2023-02-21T14:08:34.047Z,998.30
2023-02-21T14:09:34.023Z,998.31
2023-02-21T14:10:40.234Z,998.31
2023-02-21T14:12:16.780Z,998.30
2023-02-21T14:13:16.743Z,998.29
2023-02-21T14:14:19.003Z,998.30
2023-02-21T14:15:16.733Z,998.24
2023-02-21T14:16:17.063Z,998.29
2023-02-21T14:17:16.719Z,998.27
2023-02-21T14:18:16.700Z,998.27
2023-02-21T14:19:16.718Z,998.29
2023-02-21T14:20:16.682Z,998.26
2023-02-21T14:21:16.999Z,998.30
2023-02-21T14:22:51.376Z,998.30
2023-02-21T14:23:51.387Z,998.25
2023-02-21T14:24:51.334Z,998.27
2023-02-21T14:25:51.328Z,998.23
2023-02-21T14:26:57.521Z,998.21
2023-02-21T14:27:52.604Z,998.21
2023-02-21T14:28:51.319Z,998.23
2023-02-21T14:29:51.342Z,998.16
2023-02-21T14:30:51.268Z,998.13
2023-02-21T14:31:51.437Z,998.12
2023-02-21T14:32:51.314Z,998.16
2023-02-21T14:33:51.253Z,998.13
2023-02-21T14:34:51.228Z,998.14
2023-02-21T14:35:57.270Z,998.10
2023-02-21T14:36:51.226Z,998.11
2023-02-21T14:37:51.211Z,998.07
2023-02-21T14:38:57.213Z,998.07
2023-02-21T14:40:25.895Z,998.04
2023-02-21T14:41:25.876Z,998.05
2023-02-21T14:42:25.849Z,998.10
2023-02-21T14:43:25.846Z,998.02
2023-02-21T14:44:25.827Z,997.99
2023-02-21T14:45:25.850Z,998.02
2023-02-21T14:46:25.817Z,997.96
2023-02-21T14:47:25.813Z,997.95
2023-02-21T14:48:25.816Z,997.93
2023-02-21T14:49:25.787Z,997.90
2023-02-21T14:50:25.977Z,997.94
2023-02-21T14:51:31.766Z,997.93
2023-02-21T14:52:25.741Z,997.91
2023-02-21T14:53:25.950Z,997.89
2023-02-21T14:54:25.846Z,997.93
2023-02-21T14:55:25.722Z,997.88
2023-02-21T14:56:25.710Z,997.95
2023-02-21T14:57:25.707Z,997.90
2023-02-21T14:58:25.885Z,997.93
2023-02-21T14:59:25.892Z,997.96
2023-02-21T15:00:25.869Z,997.97
2023-02-21T15:01:25.785Z,997.97
2023-02-21T15:02:25.642Z,997.96
2023-02-21T15:03:25.634Z,997.91
2023-02-21T15:04:31.707Z,998.01
2023-02-21T15:05:25.621Z,997.97
2023-02-21T15:06:25.792Z,997.94
2023-02-21T15:07:25.587Z,997.96
2023-02-21T15:08:25.587Z,997.93
2023-02-21T15:09:31.617Z,997.96
2023-02-21T15:10:25.560Z,997.95
2023-02-21T15:11:26.397Z,997.94
2023-02-21T15:12:25.533Z,998.00
2023-02-21T15:13:25.525Z,997.97
2023-02-21T15:14:25.529Z,997.96
2023-02-21T15:15:25.504Z,997.92
2023-02-21T15:16:25.525Z,997.93
2023-02-21T15:17:25.485Z,997.90
2023-02-21T15:18:25.458Z,997.91
2023-02-21T15:19:25.658Z,997.93
2023-02-21T15:20:25.450Z,997.91
2023-02-21T15:21:25.434Z,997.96
2023-02-21T15:22:25.827Z,997.92
2023-02-21T15:23:25.414Z,997.95
2023-02-21T15:24:25.606Z,997.93
2023-02-21T15:25:25.410Z,997.92
2023-02-21T15:26:25.385Z,997.95
2023-02-21T15:27:25.369Z,997.96
2023-02-21T15:28:25.573Z,997.97
2023-02-21T15:29:25.349Z,997.98
2023-02-21T15:30:25.539Z,997.95
2023-02-21T15:31:31.385Z,997.98
2023-02-21T15:32:25.323Z,997.93
2023-02-21T15:33:25.701Z,997.93
2023-02-21T15:34:25.299Z,997.91
2023-02-21T15:35:25.285Z,997.94
2023-02-21T15:36:25.277Z,997.94
2023-02-21T15:37:25.254Z,997.95
2023-02-21T15:38:25.263Z,997.90
2023-02-21T15:39:31.241Z,997.88
2023-02-21T15:40:25.239Z,997.86
2023-02-21T15:41:25.239Z,997.87
2023-02-21T15:42:25.207Z,997.80
2023-02-21T15:43:25.192Z,997.85
2023-02-21T15:44:25.190Z,997.82
2023-02-21T15:45:25.163Z,997.79
2023-02-21T15:46:25.208Z,997.79
2023-02-21T15:47:25.144Z,997.84
2023-02-21T15:48:25.138Z,997.81
2023-02-21T15:49:25.139Z,997.81
2023-02-21T15:50:25.530Z,997.80
2023-02-21T15:51:25.108Z,997.83
2023-02-21T15:52:25.097Z,997.83
2023-02-21T15:53:25.103Z,997.78
2023-02-21T15:54:25.087Z,997.77
2023-02-21T15:55:25.256Z,997.76
2023-02-21T15:56:25.064Z,997.77
2023-02-21T15:57:25.258Z,997.78
2023-02-21T15:58:25.054Z,997.79
2023-02-21T15:59:25.239Z,997.79
2023-02-21T16:00:25.104Z,997.78
2023-02-21T16:01:31.055Z,997.84
2023-02-21T16:02:25.161Z,997.81
2023-02-21T16:03:25.179Z,997.77
2023-02-21T16:04:24.973Z,997.80
2023-02-21T16:05:30.964Z,997.79
2023-02-21T16:06:24.953Z,997.75
2023-02-21T16:07:24.923Z,997.78
2023-02-21T16:08:24.928Z,997.73
2023-02-21T16:09:24.925Z,997.76
2023-02-21T16:10:24.909Z,997.77
2023-02-21T16:11:24.882Z,997.77
2023-02-21T16:12:24.881Z,997.81
2023-02-21T16:13:24.888Z,997.81
2023-02-21T16:14:24.866Z,997.76
2023-02-21T16:15:24.847Z,997.76
2023-02-21T16:16:24.841Z,997.80
2023-02-21T16:17:24.816Z,997.80
2023-02-21T16:18:24.815Z,997.78
2023-02-21T16:19:24.808Z,997.73
2023-02-21T16:20:24.806Z,997.77
2023-02-21T16:21:24.776Z,997.76
2023-02-21T16:22:24.776Z,997.74
2023-02-21T16:23:24.767Z,997.74
2023-02-21T16:24:24.759Z,997.75
2023-02-21T16:25:24.761Z,997.78
2023-02-21T16:26:24.727Z,997.78
2023-02-21T16:27:24.721Z,997.79
2023-02-21T16:28:24.720Z,997.76
2023-02-21T16:29:24.748Z,997.74
2023-02-21T16:30:24.733Z,997.72
2023-02-21T16:31:24.891Z,997.71
2023-02-21T16:32:24.676Z,997.74
2023-02-21T16:33:24.663Z,997.70
2023-02-21T16:34:24.652Z,997.76
2023-02-21T16:35:24.639Z,997.78
2023-02-21T16:36:24.627Z,997.71
2023-02-21T16:37:24.610Z,997.75
2023-02-21T16:38:24.607Z,997.73
2023-02-21T16:39:24.592Z,997.74
2023-02-21T16:40:24.579Z,997.73
2023-02-21T16:41:24.575Z,997.72
2023-02-21T16:42:24.561Z,997.71
2023-02-21T16:43:24.551Z,997.75
2023-02-21T16:45:03.331Z,997.76
2023-02-21T16:46:03.333Z,997.76
2023-02-21T16:47:03.267Z,997.73
2023-02-21T16:48:03.264Z,997.71
2023-02-21T16:49:03.281Z,997.69
2023-02-21T16:50:03.242Z,997.67
2023-02-21T16:51:03.255Z,997.65
2023-02-21T16:52:03.228Z,997.68
2023-02-21T16:53:03.208Z,997.72
2023-02-21T16:54:03.200Z,997.73
2023-02-21T16:55:03.212Z,997.74
2023-02-21T16:56:03.184Z,997.73
2023-02-21T16:57:03.178Z,997.70
2023-02-21T16:58:03.155Z,997.71
2023-02-21T16:59:03.169Z,997.70
2023-02-21T17:00:03.140Z,997.71
2023-02-21T17:01:03.143Z,997.65
2023-02-21T17:02:03.121Z,997.65
2023-02-21T17:03:03.159Z,997.62
2023-02-21T17:04:03.097Z,997.68
2023-02-21T17:05:03.075Z,997.65
2023-02-21T17:06:03.082Z,997.68
2023-02-21T17:07:03.050Z,997.66
2023-02-21T17:08:03.057Z,997.63
2023-02-21T17:09:03.032Z,997.67
2023-02-21T17:10:09.031Z,997.66
2023-02-21T17:11:09.018Z,997.71
2023-02-21T17:12:03.017Z,997.71
2023-02-21T17:13:02.988Z,997.70
2023-02-21T17:14:02.985Z,997.71
2023-02-21T17:15:02.996Z,997.68
2023-02-21T17:16:03.009Z,997.74
2023-02-21T17:17:02.975Z,997.71
2023-02-21T17:18:03.159Z,997.75
2023-02-21T17:19:02.932Z,997.72
2023-02-21T17:20:02.930Z,997.72
2023-02-21T17:21:02.899Z,997.70
2023-02-21T17:22:02.905Z,997.75
2023-02-21T17:23:02.887Z,997.73
2023-02-21T17:24:02.877Z,997.71
2023-02-21T17:25:03.061Z,997.76
2023-02-21T17:26:02.854Z,997.82
2023-02-21T17:27:02.843Z,997.85
2023-02-21T17:28:02.836Z,997.86
2023-02-21T17:29:03.040Z,997.82
2023-02-21T17:30:02.820Z,997.91
2023-02-21T17:31:08.857Z,997.86
2023-02-21T17:32:02.794Z,997.89
2023-02-21T17:33:02.807Z,997.88
2023-02-21T17:34:02.784Z,997.89
2023-02-21T17:35:08.763Z,997.88
2023-02-21T17:36:02.798Z,997.84
2023-02-21T17:37:02.779Z,997.95
2023-02-21T17:38:02.988Z,997.92
2023-02-21T17:39:02.762Z,997.91
2023-02-21T17:40:02.762Z,997.91
2023-02-21T17:41:02.752Z,997.93
2023-02-21T17:42:02.743Z,997.93
2023-02-21T17:43:09.137Z,997.92
2023-02-21T17:44:02.724Z,997.93
2023-02-21T17:45:02.826Z,997.93
2023-02-21T17:46:02.728Z,997.94
2023-02-21T17:47:02.681Z,997.94
2023-02-21T17:48:02.878Z,997.94
2023-02-21T17:49:02.690Z,997.93
2023-02-21T17:50:03.237Z,997.93
2023-02-21T17:51:02.638Z,997.90
2023-02-21T17:52:02.634Z,997.90
2023-02-21T17:53:02.633Z,997.90
2023-02-21T17:54:02.612Z,997.90
2023-02-21T17:55:02.598Z,997.91
2023-02-21T17:56:02.627Z,997.90
2023-02-21T17:57:08.582Z,997.95
2023-02-21T17:58:02.596Z,997.98
2023-02-21T17:59:02.550Z,997.92
2023-02-21T18:00:02.762Z,997.96
2023-02-21T18:01:02.535Z,997.95
2023-02-21T18:02:02.677Z,997.93
2023-02-21T18:03:02.515Z,997.93
2023-02-21T18:04:02.508Z,997.90
2023-02-21T18:05:02.602Z,997.94
2023-02-21T18:06:02.491Z,997.91
2023-02-21T18:07:02.490Z,997.99
2023-02-21T18:08:02.476Z,997.99
2023-02-21T18:09:02.479Z,997.97
2023-02-21T18:10:02.480Z,997.94
2023-02-21T18:11:02.452Z,997.98
2023-02-21T18:12:02.468Z,997.95
2023-02-21T18:13:02.408Z,997.95
2023-02-21T18:14:02.408Z,997.93
2023-02-21T18:15:02.384Z,997.92
2023-02-21T18:16:02.397Z,997.95
2023-02-21T18:17:02.374Z,997.92
2023-02-21T18:18:02.371Z,997.90
2023-02-21T18:19:02.364Z,997.92
2023-02-21T18:20:02.338Z,997.90
2023-02-21T18:21:02.347Z,997.90
2023-02-21T18:22:02.317Z,997.90
2023-02-21T18:23:02.322Z,997.92
2023-02-21T18:24:02.347Z,997.90
2023-02-21T18:25:02.288Z,997.91
2023-02-21T18:26:02.366Z,997.91
2023-02-21T18:27:02.271Z,997.89
2023-02-21T18:28:02.281Z,997.85
2023-02-21T18:29:02.242Z,997.89
2023-02-21T18:30:02.332Z,997.89
2023-02-21T18:31:02.312Z,997.89
2023-02-21T18:32:02.278Z,997.90
2023-02-21T18:33:02.209Z,997.94
2023-02-21T18:34:02.202Z,997.93
2023-02-21T18:35:02.185Z,997.91
2023-02-21T18:36:02.176Z,997.90
2023-02-21T18:37:02.176Z,997.86
2023-02-21T18:38:02.157Z,997.87
2023-02-21T18:39:02.157Z,997.87
2023-02-21T18:40:02.136Z,997.93
2023-02-21T18:41:02.125Z,997.91
2023-02-21T18:42:02.125Z,997.97
2023-02-21T18:43:08.297Z,997.93
2023-02-21T18:44:02.149Z,997.95
2023-02-21T18:45:02.098Z,997.91
2023-02-21T18:46:02.081Z,997.87
2023-02-21T18:47:02.211Z,997.86
2023-02-21T18:48:02.077Z,997.86
2023-02-21T18:49:02.036Z,997.88
2023-02-21T18:50:02.048Z,997.90
2023-02-21T18:51:02.011Z,997.89
2023-02-21T18:52:02.014Z,997.88
2023-02-21T18:53:02.013Z,997.86
2023-02-21T18:54:01.991Z,997.87
2023-02-21T18:55:01.981Z,997.89
2023-02-21T18:56:01.976Z,997.90
2023-02-21T18:57:01.945Z,997.85
2023-02-21T18:58:01.948Z,997.84
2023-02-21T18:59:01.928Z,997.83
2023-02-21T19:00:01.928Z,997.84
2023-02-21T19:01:01.985Z,997.80
2023-02-21T19:02:07.907Z,997.83
2023-02-21T19:03:01.891Z,997.80
2023-02-21T19:04:01.941Z,997.78
2023-02-21T19:05:01.871Z,997.83
2023-02-21T19:06:01.863Z,997.78
2023-02-21T19:07:01.857Z,997.83
2023-02-21T19:08:01.848Z,997.80
2023-02-21T19:09:01.853Z,997.78
2023-02-21T19:10:01.813Z,997.82
2023-02-21T19:11:01.799Z,997.81
2023-02-21T19:12:01.806Z,997.86
2023-02-21T19:13:01.802Z,997.85
2023-02-21T19:14:01.779Z,997.86
2023-02-21T19:15:01.766Z,997.84
2023-02-21T19:16:01.792Z,997.84
2023-02-21T19:17:01.936Z,997.91
2023-02-21T19:18:01.737Z,997.86